M I D A S
Marine Information and Data Acquisition System
Tripno 2001 of the Zeeleeuw from 2010-12-14 08:10:19 to 2010-12-14 15:06:46
Back to CruiseResearch ActivitiesStationsMapUnderway DataData graphs

EquipmentUnitsComment
TimeDGPSUTC
LatitudeDGPSDM.mWGS84
LongitudeDGPSDM.mWGS84
TemperatureSBE03/SBE38deg celciusITS90
ConductivitySBE21S/mITS90
SalinitySBE21 Practical Salinity Units
ChlorophylAChelsea fluorimeterg/lCalibrated in Aceton
Missing or incorrect values are displayed as -999
Sea surface data collected by the RV Zeeleeuw from 2010-12-14 07:22:28 to 2010-12-14 15:12:00
Time Latitude Longitude Temperature Conductivity Salinity ChlorophylA
2010-12-14 07:23:33 51°13.662 2°55.959 12.3773 0.019916 0.110131 0.218274
2010-12-14 07:24:33 51°13.662 2°55.959 12.368 0.019916 0.110126 0.218274
2010-12-14 07:25:33 51°13.662 2°55.959 12.3605 0.019916 0.110122 0.253098
2010-12-14 07:26:34 51°13.662 2°55.96 12.3703 0.019916 0.110117 0.218274
2010-12-14 07:27:33 51°13.662 2°55.96 12.3672 0.019916 0.110112 0.253098
2010-12-14 07:28:33 51°13.662 2°55.959 12.3634 0.019916 0.110108 0.253098
2010-12-14 07:29:33 51°13.662 2°55.96 12.3661 0.019916 0.110105 0.253098
2010-12-14 07:30:34 51°13.662 2°55.96 12.3694 0.019916 0.1101 0.218274
2010-12-14 07:31:33 51°13.662 2°55.96 12.3725 0.019916 0.110095 0.218274
2010-12-14 07:32:32 51°13.661 2°55.96 12.4685 0.019812 0.109528 0.218274
2010-12-14 07:33:30 51°13.661 2°55.96 12.4536 0.019812 0.109526 0.218274
2010-12-14 07:34:30 51°13.66 2°55.96 12.4272 0.019812 0.109519 0.253098
2010-12-14 07:35:30 51°13.661 2°55.96 12.4253 0.019812 0.109516 0.218274
2010-12-14 07:36:30 51°13.661 2°55.96 12.4299 0.019812 0.109513 0.253098
2010-12-14 07:37:30 51°13.661 2°55.96 12.418 0.019812 0.10951 0.218274
2010-12-14 07:38:30 51°13.661 2°55.96 12.4166 0.019812 0.109506 0.253098
2010-12-14 07:39:30 51°13.661 2°55.96 12.4184 0.019812 0.109503 0.218274
2010-12-14 07:40:30 51°13.661 2°55.961 12.4254 0.019812 0.109502 0.253098
2010-12-14 07:41:30 51°13.66 2°55.959 12.4437 0.019812 0.109498 0.218274
2010-12-14 07:42:30 51°13.66 2°55.96 12.4294 0.019812 0.109497 0.253098
2010-12-14 07:43:30 51°13.66 2°55.96 12.4304 0.019812 0.109497 0.253098
2010-12-14 07:44:30 51°13.66 2°55.96 12.4422 0.019812 0.109498 0.218274
2010-12-14 07:45:30 51°13.661 2°55.96 12.425 0.019708 0.108933 0.218274
2010-12-14 07:46:30 51°13.662 2°55.96 12.4312 0.019708 0.108936 0.218274
2010-12-14 07:47:30 51°13.662 2°55.961 12.4283 0.019708 0.108937 0.218274
2010-12-14 07:48:30 51°13.663 2°55.961 12.4384 0.019708 0.108941 0.218274
2010-12-14 07:49:30 51°13.663 2°55.961 12.4324 0.019708 0.108945 0.253098
2010-12-14 07:50:30 51°13.663 2°55.961 12.4425 0.019708 0.108949 0.218274
2010-12-14 07:51:30 51°13.663 2°55.961 12.44 0.019708 0.108955 0.218274
2010-12-14 07:52:30 51°13.663 2°55.96 12.4501 0.019708 0.10896 0.218274
2010-12-14 07:53:33 51°13.662 2°55.96 12.4708 0.019604 0.108401 0.218274
2010-12-14 07:54:33 51°13.662 2°55.96 12.4744 0.019604 0.108412 0.218274
2010-12-14 07:55:32 51°13.661 2°55.961 12.4905 0.019604 0.108423 0.253098
2010-12-14 07:56:31 51°13.661 2°55.955 12.3423 0.019604 0.108433 0.218274
2010-12-14 07:57:34 51°13.682 2°55.846 12.5202 0.019084 0.105568 0.218274
2010-12-14 07:58:34 51°13.696 2°55.742 12.5417 0.019084 0.105572 0.253098
2010-12-14 07:59:33 51°13.705 2°55.752 12.2901 0.01898 0.105017 0.218274
2010-12-14 08:00:34 51°13.684 2°55.731 12.5069 0.018876 0.104426 0.218274
2010-12-14 08:01:33 51°13.741 2°55.694 12.2776 0.018772 0.103867 0.253098
2010-12-14 08:02:29 51°13.866 2°55.602 12.1555 0.018668 0.103303 0.218274
2010-12-14 08:03:30 51°14.02 2°55.493 12.2947 0.018668 0.103327 0.218274
2010-12-14 08:04:33 51°14.187 2°55.368 12.139 0.018564 0.102798 0.218274
2010-12-14 08:05:33 51°14.349 2°55.202 12.0887 0.01846 0.102272 0.218274
2010-12-14 08:06:33 51°14.519 2°55.023 12.0354 0.01846 0.102323 0.218274
2010-12-14 08:07:31 51°14.673 2°54.839 12.0501 0.01846 0.103058 0.218274
2010-12-14 08:08:30 51°14.849 2°54.663 12.0185 0.018564 0.104012 0.218274
2010-12-14 08:09:30 51°15.046 2°54.55 4.5963 3.232305 30.428693 0.462042
2010-12-14 08:10:30 51°15.25 2°54.465 4.2774 2.890361 29.744956 0.462042
2010-12-14 08:11:30 51°15.448 2°54.345 4.243 2.854345 29.645083 0.427218
2010-12-14 08:12:30 51°15.647 2°54.217 4.1686 2.859717 29.774847 0.462042
2010-12-14 08:13:31 51°15.832 2°54.041 4.1466 2.862983 29.884996 0.427218
2010-12-14 08:14:30 51°16.011 2°53.866 4.1513 2.865511 29.949393 0.392394
2010-12-14 08:15:30 51°16.191 2°53.682 4.1551 2.86372 29.944818 0.427218
2010-12-14 08:16:30 51°16.362 2°53.482 4.1279 2.867301 30.00383 0.392394
2010-12-14 08:17:30 51°16.538 2°53.283 4.1228 2.865616 30.0013 0.35757
2010-12-14 08:18:30 51°16.716 2°53.09 4.1907 2.878465 30.14485 0.322746
2010-12-14 08:19:30 51°16.885 2°52.897 4.2199 2.890471 30.226756 0.322746
2010-12-14 08:20:30 51°17.062 2°52.715 4.2297 2.897949 30.300861 0.35757
2010-12-14 08:21:30 51°17.258 2°52.611 4.2481 2.901109 30.326751 0.322746
2010-12-14 08:22:31 51°17.472 2°52.568 4.2632 2.904374 30.361162 0.35757
2010-12-14 08:23:30 51°17.677 2°52.56 4.2856 2.90985 30.404801 0.322746
2010-12-14 08:24:30 51°17.881 2°52.574 4.2881 2.915748 30.459777 0.287922
2010-12-14 08:25:30 51°18.091 2°52.578 4.2992 2.920594 30.51646 0.35757
2010-12-14 08:26:30 51°18.302 2°52.578 4.3064 2.926281 30.569792 0.322746
2010-12-14 08:27:30 51°18.515 2°52.577 4.3321 2.930389 30.608159 0.322746
2010-12-14 08:28:30 51°18.722 2°52.571 4.3419 2.936182 30.657748 0.322746
2010-12-14 08:29:30 51°18.932 2°52.566 4.3363 2.938815 30.679084 0.322746
2010-12-14 08:30:30 51°19.144 2°52.556 4.3628 2.941132 30.708253 0.322746
2010-12-14 08:31:31 51°19.359 2°52.549 4.3921 2.948084 30.765386 0.322746
2010-12-14 08:32:30 51°19.568 2°52.541 4.4131 2.957564 30.852403 0.287922
2010-12-14 08:33:31 51°19.779 2°52.531 4.4445 2.963673 30.901357 0.253098
2010-12-14 08:34:30 51°19.98 2°52.522 4.469 2.97052 30.952981 0.253098
2010-12-14 08:35:30 51°20.191 2°52.512 4.4746 2.975471 30.99428 0.218274
2010-12-14 08:36:31 51°20.405 2°52.502 4.5031 2.981475 31.051799 0.218274
2010-12-14 08:37:30 51°20.61 2°52.49 4.533 2.990534 31.138642 0.218274
2010-12-14 08:38:30 51°20.822 2°52.48 4.5497 2.999066 31.206108 0.148626
2010-12-14 08:39:30 51°21.036 2°52.47 4.5546 3.004017 31.253071 0.148626
2010-12-14 08:40:30 51°21.249 2°52.459 4.5876 3.010654 31.31773 0.148626
2010-12-14 08:41:30 51°21.463 2°52.449 4.6537 3.025191 31.443995 0.148626
2010-12-14 08:42:30 51°21.674 2°52.438 4.6883 3.038149 31.543563 0.148626
2010-12-14 08:43:30 51°21.889 2°52.429 4.7402 3.049632 31.641057 0.148626
2010-12-14 08:44:30 51°22.101 2°52.422 4.7802 3.060061 31.707918 0.113802
2010-12-14 08:45:30 51°22.315 2°52.414 4.8017 3.068384 31.769761 0.113802
2010-12-14 08:46:31 51°22.523 2°52.406 4.8208 3.073335 31.807179 0.113802
2010-12-14 08:47:31 51°22.727 2°52.398 4.8895 3.076285 31.830883 0.078977
2010-12-14 08:48:30 51°22.931 2°52.392 4.9501 3.089876 31.905806 0.078977
2010-12-14 08:49:30 51°23.143 2°52.388 4.9717 3.099674 31.971566 0.078977
2010-12-14 08:50:30 51°23.346 2°52.379 5.0052 3.105468 32.013352 0.078977
2010-12-14 08:51:31 51°23.551 2°52.372 5.0338 3.112527 32.062792 0.078977
2010-12-14 08:52:30 51°23.761 2°52.386 5.0556 3.118638 32.105562 0.113802
2010-12-14 08:53:30 51°23.975 2°52.409 5.0716 3.125171 32.160644 0.044153
2010-12-14 08:54:31 51°24.189 2°52.434 5.0952 3.13065 32.206213 0.078977
2010-12-14 08:55:30 51°24.397 2°52.461 5.1201 3.135075 32.238916 0.044153
2010-12-14 08:56:30 51°24.605 2°52.486 5.1734 3.141713 32.283295 0.078977
2010-12-14 08:57:30 51°24.818 2°52.51 5.2109 3.15109 32.346956 0.078977
2010-12-14 08:58:30 51°25.028 2°52.533 5.2421 3.158993 32.396279 0.078977
2010-12-14 08:59:31 51°25.239 2°52.56 5.2656 3.165209 32.439874 0.078977
2010-12-14 09:00:30 51°25.442 2°52.586 5.318 3.17111 32.482364 0.044153
2010-12-14 09:01:30 51°25.649 2°52.618 5.3577 3.181542 32.550847 0.009329
2010-12-14 09:02:30 51°25.854 2°52.696 5.4134 3.188707 32.590649 0.078977
2010-12-14 09:03:30 51°26.056 2°52.781 5.451 3.196504 32.63247 0.044153
2010-12-14 09:04:30 51°26.259 2°52.865 5.5001 3.203354 32.670243 0.044153
2010-12-14 09:05:30 51°26.465 2°52.948 5.531 3.210519 32.710677 0.044153
2010-12-14 09:06:30 51°26.671 2°53.033 5.546 3.216104 32.743334 0.078977
2010-12-14 09:07:30 51°26.877 2°53.109 5.5495 3.21916 32.76346 0.078977
2010-12-14 09:08:30 51°27.079 2°53.184 5.5527 3.220951 32.780286 0.078977
2010-12-14 09:09:31 51°27.28 2°53.261 5.5785 3.222954 32.79611 0.044153
2010-12-14 09:10:30 51°27.477 2°53.337 5.6058 3.227169 32.814926 0.078977
2010-12-14 09:11:30 51°27.684 2°53.419 5.6316 3.231384 32.839626 0.044153
2010-12-14 09:12:30 51°27.891 2°53.502 5.6663 3.23465 32.848567 0.078977
2010-12-14 09:13:30 51°28.1 2°53.585 5.6882 3.239919 32.877488 0.044153
2010-12-14 09:14:30 51°28.308 2°53.667 5.7155 3.245083 32.914463 0.044153
2010-12-14 09:15:30 51°28.52 2°53.749 5.7546 3.251406 32.956836 0.044153
2010-12-14 09:16:30 51°28.729 2°53.835 5.7974 3.257624 32.987006 0.044153
2010-12-14 09:17:30 51°28.931 2°53.919 5.8669 3.266054 33.03604 0.078977
2010-12-14 09:18:30 51°29.127 2°54.002 5.8717 3.273642 33.064577 0.078977
2010-12-14 09:19:30 51°29.332 2°54.087 5.8805 3.274274 33.06913 0.078977
2010-12-14 09:20:31 51°29.538 2°54.172 5.9246 3.276593 33.082446 0.078977
2010-12-14 09:21:30 51°29.738 2°54.253 5.9492 3.282178 33.103661 0.078977
2010-12-14 09:22:30 51°29.942 2°54.352 5.9723 3.286394 33.125528 0.044153
2010-12-14 09:23:30 51°30.139 2°54.445 6.0329 3.290293 33.144681 0.044153
2010-12-14 09:24:30 51°30.342 2°54.543 6.0734 3.299356 33.189469 0.044153
2010-12-14 09:25:30 51°30.545 2°54.64 6.1306 3.30568 33.216234 0.078977
2010-12-14 09:26:30 51°30.75 2°54.74 6.1526 3.313057 33.250485 0.078977
2010-12-14 09:27:30 51°30.958 2°54.828 6.1643 3.316324 33.266676 0.078977
2010-12-14 09:28:31 51°31.164 2°54.915 6.1715 3.319064 33.285396 0.044153
2010-12-14 09:29:30 51°31.366 2°55.001 6.1736 3.321067 33.300105 0.078977
2010-12-14 09:30:30 51°31.575 2°55.088 6.2181 3.322542 33.314836 0.078977
2010-12-14 09:31:30 51°31.785 2°55.177 6.2708 3.332766 33.373815 0.078977
2010-12-14 09:32:30 51°31.996 2°55.265 6.2947 3.340565 33.422579 0.078977
2010-12-14 09:33:30 51°32.204 2°55.353 6.3312 3.345097 33.443434 0.078977
2010-12-14 09:34:30 51°32.385 2°55.429 6.3557 3.350262 33.468753 0.078977
2010-12-14 09:35:30 51°32.504 2°55.476 6.3825 3.35511 33.498103 0.078977
2010-12-14 09:36:30 51°32.592 2°55.505 6.4029 3.359221 33.517571 0.078977
2010-12-14 09:37:30 51°32.647 2°55.518 6.4098 3.362383 33.534085 0.113802
2010-12-14 09:38:30 51°32.688 2°55.517 6.4209 3.364174 33.547192 0.113802
2010-12-14 09:39:30 51°32.734 2°55.482 6.4427 3.365755 33.552919 0.113802
2010-12-14 09:40:30 51°32.763 2°55.435 6.4678 3.368812 33.563199 0.113802
2010-12-14 09:41:30 51°32.796 2°55.362 6.4863 3.372817 33.584795 0.078977
2010-12-14 09:42:30 51°32.945 2°55.195 6.515 3.374925 33.589612 0.078977
2010-12-14 09:43:30 51°33.147 2°55.202 6.6201 3.380722 33.602426 0.113802
2010-12-14 09:44:30 51°33.19 2°55.497 6.6643 3.393054 33.650355 0.113802
2010-12-14 09:45:30 51°33.098 2°55.794 6.6586 3.398535 33.6797 0.078977
2010-12-14 09:46:30 51°33.015 2°56.097 6.5765 3.397797 33.685819 0.113802
2010-12-14 09:47:30 51°32.916 2°56.368 6.484 3.38399 33.632604 0.078977
2010-12-14 09:48:30 51°32.952 2°56.487 6.4424 3.370709 33.569055 0.078977
2010-12-14 09:49:30 51°32.998 2°56.479 6.4225 3.365228 33.537846 0.078977
2010-12-14 09:50:30 51°33.021 2°56.431 6.4226 3.363858 33.527729 0.078977
2010-12-14 09:51:30 51°33.027 2°56.371 6.425 3.363963 33.528055 0.078977
2010-12-14 09:52:30 51°33.035 2°56.298 6.4238 3.364701 33.532857 0.113802
2010-12-14 09:53:30 51°33.05 2°56.24 6.4196 3.365017 33.540554 0.113802
2010-12-14 09:54:30 51°33.066 2°56.193 6.4294 3.364807 33.541583 0.078977
2010-12-14 09:55:30 51°33.08 2°56.161 6.4287 3.365123 33.536681 0.078977
2010-12-14 09:56:30 51°33.089 2°56.138 6.4366 3.36565 33.54419 0.113802
2010-12-14 09:57:30 51°33.094 2°56.118 6.4408 3.367442 33.558128 0.113802
2010-12-14 09:58:30 51°33.095 2°56.099 6.438 3.367547 33.555933 0.078977
2010-12-14 09:59:30 51°33.095 2°56.082 6.4446 3.36818 33.559566 0.078977
2010-12-14 10:00:30 51°33.127 2°56.017 6.4549 3.368179 33.557886 0.113802
2010-12-14 10:01:30 51°33.192 2°55.754 6.4863 3.369971 33.565098 0.113802
2010-12-14 10:02:30 51°33.198 2°55.406 6.571 3.374609 33.58276 0.113802
2010-12-14 10:03:30 51°33.077 2°55.149 6.6355 3.387573 33.641088 0.113802
2010-12-14 10:04:30 51°32.907 2°55.263 6.5981 3.394635 33.673631 0.078977
2010-12-14 10:05:30 51°32.852 2°55.392 6.5027 3.38673 33.641017 0.113802
2010-12-14 10:06:30 51°32.832 2°55.452 6.4698 3.377244 33.600951 0.113802
2010-12-14 10:07:30 51°32.819 2°55.482 6.4539 3.371763 33.572306 0.078977
2010-12-14 10:08:30 51°32.81 2°55.492 6.4428 3.369866 33.565613 0.078977
2010-12-14 10:09:30 51°32.805 2°55.491 6.4382 3.367442 33.555607 0.113802
2010-12-14 10:10:30 51°32.8 2°55.483 6.4401 3.366493 33.549316 0.078977
2010-12-14 10:11:30 51°32.796 2°55.471 6.4446 3.366177 33.542459 0.078977
2010-12-14 10:12:30 51°32.794 2°55.456 6.4388 3.366388 33.539752 0.113802
2010-12-14 10:13:30 51°32.792 2°55.44 6.4271 3.366071 33.542973 0.078977
2010-12-14 10:14:30 51°32.792 2°55.422 6.4285 3.36565 33.54503 0.078977
2010-12-14 10:15:30 51°32.791 2°55.403 6.4192 3.364807 33.542423 0.113802
2010-12-14 10:16:30 51°32.79 2°55.383 6.4167 3.36428 33.544155 0.078977
2010-12-14 10:17:30 51°32.79 2°55.365 6.4038 3.363331 33.53786 0.078977
2010-12-14 10:18:30 51°32.787 2°55.346 6.4048 3.363753 33.546729 0.113802
2010-12-14 10:19:30 51°32.786 2°55.33 6.4013 3.36291 33.54244 0.078977
2010-12-14 10:20:30 51°32.781 2°55.317 6.4082 3.36291 33.5416 0.078977
2010-12-14 10:21:30 51°32.773 2°55.316 6.4142 3.363226 33.542578 0.078977
2010-12-14 10:22:30 51°32.765 2°55.323 6.409 3.362699 33.532542 0.078977
2010-12-14 10:23:30 51°32.761 2°55.332 6.4082 3.36291 33.537396 0.078977
2010-12-14 10:24:30 51°32.758 2°55.335 6.4117 3.36312 33.54057 0.078977
2010-12-14 10:25:30 51°32.721 2°55.362 6.4092 3.362488 33.529369 0.078977
2010-12-14 10:26:30 51°32.685 2°55.29 6.3989 3.362066 33.527224 0.078977
2010-12-14 10:27:30 51°32.702 2°55.198 6.3893 3.360801 33.520787 0.113802
2010-12-14 10:28:30 51°32.727 2°55.13 6.3962 3.359642 33.516356 0.113802
2010-12-14 10:29:30 51°32.748 2°55.077 6.406 3.360591 33.520975 0.078977
2010-12-14 10:30:30 51°32.787 2°55.005 6.4083 3.361118 33.515885 0.078977
2010-12-14 10:31:30 51°32.905 2°54.986 6.4226 3.363436 33.532304 0.078977
2010-12-14 10:32:30 51°33.039 2°55.045 6.4549 3.365861 33.545682 0.113802
2010-12-14 10:33:30 51°33.158 2°55.161 6.4847 3.370287 33.565234 0.113802
2010-12-14 10:34:30 51°33.224 2°55.338 6.5476 3.376085 33.589825 0.113802
2010-12-14 10:35:30 51°33.194 2°55.539 6.5586 3.383673 33.620726 0.113802
2010-12-14 10:36:30 51°33.165 2°55.687 6.5176 3.383252 33.622786 0.113802
2010-12-14 10:37:30 51°33.141 2°55.802 6.4755 3.378193 33.603031 0.078977
2010-12-14 10:38:30 51°33.13 2°55.871 6.4436 3.371552 33.574176 0.044153
2010-12-14 10:39:30 51°33.126 2°55.914 6.4393 3.36818 33.558726 0.113802
2010-12-14 10:40:30 51°33.125 2°55.941 6.4228 3.365755 33.541996 0.078977
2010-12-14 10:41:30 51°33.125 2°55.96 6.4163 3.364596 33.538411 0.113802
2010-12-14 10:42:30 51°33.125 2°55.975 6.4118 3.363226 33.531652 0.113802
2010-12-14 10:43:30 51°33.126 2°55.982 6.4016 3.36175 33.521204 0.078977
2010-12-14 10:44:30 51°33.124 2°55.981 6.404 3.361012 33.520599 0.078977
2010-12-14 10:45:30 51°33.124 2°55.975 6.3986 3.360801 33.517426 0.078977
2010-12-14 10:46:30 51°33.122 2°55.965 6.3981 3.360591 33.518454 0.078977
2010-12-14 10:47:30 51°33.12 2°55.951 6.3911 3.360169 33.515467 0.078977
2010-12-14 10:48:30 51°33.118 2°55.934 6.394 3.359958 33.513134 0.044153
2010-12-14 10:49:30 51°33.116 2°55.916 6.3886 3.35901 33.511035 0.113802
2010-12-14 10:50:30 51°33.115 2°55.901 6.3826 3.359221 33.516731 0.113802
2010-12-14 10:51:30 51°33.113 2°55.883 6.3828 3.358167 33.507581 0.078977
2010-12-14 10:52:30 51°33.111 2°55.867 6.3789 3.358694 33.513417 0.078977
2010-12-14 10:53:30 51°33.102 2°55.861 6.3916 3.358272 33.509589 0.078977
2010-12-14 10:54:30 51°33.094 2°55.897 6.3851 3.358166 33.50506 0.078977
2010-12-14 10:55:30 51°33.111 2°55.955 6.3793 3.358904 33.513229 0.078977
2010-12-14 10:56:30 51°33.126 2°55.997 6.3816 3.358483 33.513604 0.078977
2010-12-14 10:57:30 51°33.127 2°56.024 6.3768 3.357429 33.503613 0.078977
2010-12-14 10:58:30 51°33.121 2°56.038 6.3816 3.358061 33.508935 0.078977
2010-12-14 10:59:30 51°33.114 2°56.043 6.3867 3.358377 33.508235 0.078977
2010-12-14 11:00:30 51°33.11 2°56.041 6.384 3.358483 33.507721 0.078977
2010-12-14 11:01:30 51°33.107 2°56.032 6.3833 3.358061 33.505574 0.078977
2010-12-14 11:02:30 51°33.104 2°56.017 6.3776 3.35785 33.50324 0.078977
2010-12-14 11:03:30 51°33.102 2°56.001 6.3715 3.356691 33.496283 0.044153
2010-12-14 11:04:30 51°33.1 2°55.983 6.3723 3.356164 33.496329 0.078977
2010-12-14 11:05:30 51°33.098 2°55.965 6.3713 3.356796 33.503333 0.078977
2010-12-14 11:06:30 51°33.094 2°55.951 6.3725 3.356059 33.496842 0.113802
2010-12-14 11:07:30 51°33.079 2°55.963 6.362 3.355742 33.49334 0.113802
2010-12-14 11:08:30 51°33.064 2°55.994 6.3565 3.354899 33.490723 0.113802
2010-12-14 11:09:30 51°33.052 2°56.019 6.3531 3.354478 33.491937 0.078977
2010-12-14 11:10:30 51°33.044 2°56.034 6.3479 3.353424 33.486143 0.078977
2010-12-14 11:11:30 51°33.042 2°56.043 6.3425 3.352791 33.483339 0.078977
2010-12-14 11:12:30 51°33.038 2°56.045 6.3384 3.350789 33.465348 0.078977
2010-12-14 11:13:30 51°33.035 2°56.04 6.3408 3.350683 33.467542 0.113802
2010-12-14 11:14:30 51°33.033 2°56.034 6.338 3.35121 33.475064 0.113802
2010-12-14 11:15:30 51°33.027 2°56.048 6.3358 3.350683 33.470904 0.078977
2010-12-14 11:16:30 51°33.023 2°56.076 6.3334 3.350999 33.469365 0.078977
2010-12-14 11:17:30 51°33.017 2°56.112 6.3171 3.349945 33.464407 0.113802
2010-12-14 11:18:30 51°33.014 2°56.151 6.2958 3.346678 33.444154 0.113802
2010-12-14 11:19:30 51°33.004 2°56.202 6.2758 3.343622 33.427906 0.078977
2010-12-14 11:20:30 51°32.95 2°56.261 6.2872 3.342462 33.424291 0.078977
2010-12-14 11:21:30 51°32.844 2°56.293 6.252 3.342041 33.416251 0.113802
2010-12-14 11:22:30 51°32.718 2°56.286 6.2264 3.337298 33.398921 0.078977
2010-12-14 11:23:30 51°32.599 2°56.215 6.2245 3.332766 33.372133 0.078977
2010-12-14 11:24:30 51°32.578 2°56.02 6.2089 3.330552 33.347546 0.078977
2010-12-14 11:25:30 51°32.629 2°55.877 6.2034 3.329393 33.34223 0.078977
2010-12-14 11:26:30 51°32.66 2°55.788 6.207 3.32855 33.343788 0.078977
2010-12-14 11:27:30 51°32.679 2°55.727 6.2195 3.32992 33.355651 0.044153
2010-12-14 11:28:30 51°32.693 2°55.693 6.2257 3.331396 33.362797 0.078977
2010-12-14 11:29:30 51°32.695 2°55.671 6.2266 3.332239 33.365438 0.113802
2010-12-14 11:30:30 51°32.692 2°55.652 6.2288 3.333504 33.382011 0.078977
2010-12-14 11:31:30 51°32.688 2°55.634 6.2349 3.33382 33.378795 0.078977
2010-12-14 11:32:30 51°32.684 2°55.617 6.2357 3.334874 33.385456 0.078977
2010-12-14 11:33:30 51°32.68 2°55.601 6.2379 3.334979 33.384104 0.078977
2010-12-14 11:34:30 51°32.68 2°55.549 6.2387 3.33519 33.388127 0.044153
2010-12-14 11:35:30 51°32.646 2°55.495 6.2575 3.335717 33.39398 0.078977
2010-12-14 11:36:30 51°32.601 2°55.503 6.2675 3.338563 33.407076 0.113802
2010-12-14 11:37:30 51°32.554 2°55.536 6.2535 3.339617 33.417095 0.078977
2010-12-14 11:38:30 51°32.523 2°55.564 6.2362 3.337192 33.401115 0.078977
2010-12-14 11:39:30 51°32.5 2°55.577 6.2281 3.334241 33.386002 0.113802
2010-12-14 11:40:30 51°32.483 2°55.581 6.2321 3.333187 33.376816 0.113802
2010-12-14 11:41:30 51°32.471 2°55.582 6.2357 3.333504 33.379488 0.078977
2010-12-14 11:42:30 51°32.461 2°55.577 6.2322 3.333504 33.377806 0.078977
2010-12-14 11:43:30 51°32.454 2°55.571 6.2352 3.332871 33.372463 0.078977
2010-12-14 11:44:30 51°32.447 2°55.563 6.2148 3.332871 33.373304 0.113802
2010-12-14 11:45:30 51°32.441 2°55.549 6.2185 3.33129 33.368354 0.113802
2010-12-14 11:46:30 51°32.436 2°55.531 6.2117 3.331079 33.36433 0.044153
2010-12-14 11:47:30 51°32.43 2°55.513 6.2071 3.32992 33.356492 0.044153
2010-12-14 11:48:30 51°32.424 2°55.495 6.2051 3.32855 33.350515 0.078977
2010-12-14 11:49:30 51°32.418 2°55.478 6.2037 3.328339 33.348172 0.078977
2010-12-14 11:50:30 51°32.413 2°55.458 6.2025 3.328339 33.348172 0.044153
2010-12-14 11:51:30 51°32.408 2°55.438 6.2073 3.328866 33.350666 0.078977
2010-12-14 11:52:30 51°32.402 2°55.418 6.2085 3.328972 33.355202 0.078977
2010-12-14 11:53:30 51°32.395 2°55.397 6.2061 3.328866 33.351507 0.044153
2010-12-14 11:54:30 51°32.387 2°55.378 6.2061 3.329288 33.357875 0.044153
2010-12-14 11:55:30 51°32.378 2°55.361 6.2199 3.329288 33.355351 0.078977
2010-12-14 11:56:30 51°32.37 2°55.343 6.2213 3.329498 33.348444 0.078977
2010-12-14 11:57:30 51°32.361 2°55.325 6.2229 3.330658 33.355441 0.113802
2010-12-14 11:58:30 51°32.339 2°55.334 6.2215 3.330025 33.347575 0.044153
2010-12-14 11:59:30 51°32.317 2°55.452 6.2122 3.32992 33.35397 0.078977
2010-12-14 12:00:30 51°32.351 2°55.609 6.2049 3.328445 33.342617 0.078977
2010-12-14 12:01:30 51°32.438 2°55.719 6.2032 3.32718 33.331924 0.078977
2010-12-14 12:02:30 51°32.518 2°55.833 6.2115 3.326864 33.326729 0.078977
2010-12-14 12:03:30 51°32.529 2°55.954 6.2042 3.327917 33.333399 0.078977
2010-12-14 12:04:30 51°32.511 2°56.014 6.2079 3.326547 33.327417 0.078977
2010-12-14 12:05:30 51°32.493 2°56.045 6.2133 3.326969 33.332103 0.078977
2010-12-14 12:06:30 51°32.477 2°56.06 6.2198 3.327496 33.326194 0.078977
2010-12-14 12:07:30 51°32.463 2°56.064 6.225 3.327917 33.330878 0.078977
2010-12-14 12:08:30 51°32.45 2°56.062 6.2247 3.328971 33.336706 0.113802
2010-12-14 12:09:30 51°32.438 2°56.057 6.2244 3.329077 33.336197 0.044153
2010-12-14 12:10:30 51°32.428 2°56.048 6.2273 3.329288 33.339378 0.078977
2010-12-14 12:11:30 51°32.418 2°56.036 6.2267 3.328339 33.328841 0.078977
2010-12-14 12:12:30 51°32.409 2°56.02 6.2286 3.328971 33.334186 0.078977
2010-12-14 12:13:30 51°32.4 2°56.002 6.2239 3.328655 33.328993 0.044153
2010-12-14 12:14:30 51°32.39 2°55.984 6.2274 3.328444 33.329172 0.078977
2010-12-14 12:15:30 51°32.38 2°55.966 6.2186 3.328234 33.32935 0.044153
2010-12-14 12:16:30 51°32.37 2°55.947 6.2202 3.327601 33.328205 0.078977
2010-12-14 12:17:30 51°32.359 2°55.929 6.2184 3.327707 33.326016 0.044153
2010-12-14 12:18:30 51°32.338 2°55.938 6.221 3.32718 33.321001 0.078977
2010-12-14 12:19:30 51°32.344 2°56.002 6.2215 3.32739 33.323343 0.078977
2010-12-14 12:20:30 51°32.417 2°56.101 6.2191 3.326969 33.317819 0.078977
2010-12-14 12:21:30 51°32.525 2°56.035 6.2177 3.326863 33.319168 0.078977
2010-12-14 12:22:30 51°32.584 2°55.867 6.2094 3.328444 33.332532 0.044153
2010-12-14 12:23:30 51°32.586 2°55.749 6.2073 3.32718 33.330243 0.113802
2010-12-14 12:24:30 51°32.574 2°55.669 6.2024 3.327285 33.335617 0.044153
2010-12-14 12:25:30 51°32.567 2°55.599 6.2062 3.327496 33.338801 0.078977
2010-12-14 12:26:30 51°32.577 2°55.546 6.2127 3.32855 33.344629 0.044153
2010-12-14 12:27:30 51°32.596 2°55.513 6.222 3.329709 33.352468 0.078977
2010-12-14 12:28:30 51°32.611 2°55.496 6.2206 3.330974 33.359795 0.078977
2010-12-14 12:29:30 51°32.621 2°55.484 6.2153 3.330869 33.361987 0.078977
2010-12-14 12:30:30 51°32.626 2°55.473 6.2139 3.329709 33.353309 0.044153
2010-12-14 12:31:30 51°32.638 2°55.507 6.2156 3.330131 33.355471 0.078977
2010-12-14 12:32:30 51°32.608 2°55.547 6.2151 3.330342 33.361177 0.044153
2010-12-14 12:33:30 51°32.567 2°55.533 6.2196 3.331923 33.370334 0.044153
2010-12-14 12:34:30 51°32.534 2°55.457 6.218 3.332133 33.36763 0.078977
2010-12-14 12:35:30 51°32.549 2°55.371 6.2381 3.331501 33.364809 0.078977
2010-12-14 12:36:30 51°32.614 2°55.342 6.2156 3.334874 33.37957 0.078977
2010-12-14 12:37:30 51°32.708 2°55.33 6.2202 3.33129 33.36499 0.044153
2010-12-14 12:38:30 51°32.753 2°55.301 6.2346 3.33266 33.377691 0.078977
2010-12-14 12:39:30 51°32.775 2°55.272 6.2471 3.336244 33.399833 0.078977
2010-12-14 12:40:30 51°32.786 2°55.245 6.2558 3.33793 33.408466 0.078977
2010-12-14 12:41:30 51°32.789 2°55.22 6.2523 3.338773 33.412781 0.078977
2010-12-14 12:42:30 51°32.786 2°55.197 6.2615 3.3393 33.416109 0.078977
2010-12-14 12:43:30 51°32.775 2°55.172 6.2618 3.340038 33.418411 0.078977
2010-12-14 12:44:30 51°32.76 2°55.147 6.2635 3.340249 33.418228 0.078977
2010-12-14 12:45:30 51°32.746 2°55.126 6.2771 3.340776 33.422395 0.078977
2010-12-14 12:46:30 51°32.733 2°55.106 6.2757 3.342568 33.43387 0.044153
2010-12-14 12:47:30 51°32.718 2°55.084 6.2784 3.341619 33.422502 0.078977
2010-12-14 12:48:30 51°32.705 2°55.064 6.2736 3.342989 33.436026 0.078977
2010-12-14 12:49:30 51°32.692 2°55.043 6.2753 3.342252 33.432044 0.044153
2010-12-14 12:50:30 51°32.678 2°55.023 6.2795 3.342673 33.43504 0.044153
2010-12-14 12:51:30 51°32.665 2°55.002 6.2744 3.342673 33.431675 0.078977
2010-12-14 12:52:30 51°32.652 2°54.98 6.2762 3.342146 33.427509 0.113802
2010-12-14 12:53:30 51°32.64 2°54.954 6.2842 3.342778 33.432004 0.044153
2010-12-14 12:54:30 51°32.634 2°54.917 6.2825 3.342989 33.432661 0.078977
2010-12-14 12:55:30 51°32.652 2°54.866 6.2826 3.343411 33.435657 0.078977
2010-12-14 12:56:30 51°32.683 2°54.865 6.2792 3.342989 33.430979 0.078977
2010-12-14 12:57:30 51°32.707 2°54.919 6.2947 3.34457 33.448522 0.044153
2010-12-14 12:58:30 51°32.691 2°54.969 6.2929 3.346046 33.453116 0.078977
2010-12-14 12:59:30 51°32.666 2°54.984 6.2838 3.345097 33.448481 0.078977
2010-12-14 13:00:30 51°32.643 2°54.987 6.2803 3.344043 33.445198 0.113802
2010-12-14 13:01:30 51°32.624 2°54.982 6.2646 3.342884 33.438221 0.078977
2010-12-14 13:02:30 51°32.606 2°54.974 6.269 3.341092 33.426746 0.044153
2010-12-14 13:03:30 51°32.589 2°54.962 6.2786 3.341198 33.427075 0.044153
2010-12-14 13:04:30 51°32.572 2°54.946 6.2725 3.342041 33.429704 0.078977
2010-12-14 13:05:30 51°32.554 2°54.926 6.28 3.342252 33.433726 0.078977
2010-12-14 13:06:30 51°32.538 2°54.909 6.281 3.342673 33.433358 0.078977
2010-12-14 13:07:30 51°32.521 2°54.894 6.2912 3.342462 33.429336 0.078977
2010-12-14 13:08:30 51°32.5 2°54.889 6.299 3.344149 33.435433 0.078977
2010-12-14 13:09:30 51°32.479 2°54.886 6.2945 3.344781 33.442449 0.044153
2010-12-14 13:10:30 51°32.461 2°54.879 6.2883 3.344043 33.437628 0.044153
2010-12-14 13:11:30 51°32.443 2°54.867 6.2825 3.343516 33.436827 0.078977
2010-12-14 13:12:30 51°32.427 2°54.855 6.2672 3.342778 33.430322 0.078977
2010-12-14 13:13:30 51°32.409 2°54.845 6.2663 3.340671 33.423749 0.078977
2010-12-14 13:14:30 51°32.393 2°54.831 6.2563 3.339617 33.414572 0.078977
2010-12-14 13:15:30 51°32.376 2°54.811 6.2538 3.338773 33.410258 0.078977
2010-12-14 13:16:30 51°32.353 2°54.797 6.255 3.338457 33.410112 0.044153
2010-12-14 13:17:30 51°32.254 2°54.797 6.2521 3.338141 33.40576 0.044153
2010-12-14 13:18:30 51°32.075 2°54.773 6.2539 3.337509 33.405467 0.044153
2010-12-14 13:19:30 51°31.863 2°54.743 6.2269 3.335506 33.389957 0.113802
2010-12-14 13:20:30 51°31.646 2°54.693 6.222 3.330658 33.352079 0.078977
2010-12-14 13:21:30 51°31.457 2°54.639 6.2162 3.329077 33.337037 0.078977
2010-12-14 13:22:30 51°31.312 2°54.591 6.2162 3.327707 33.331057 0.044153
2010-12-14 13:23:30 51°31.175 2°54.547 6.2252 3.328339 33.338924 0.078977
2010-12-14 13:24:30 51°31.039 2°54.502 6.2296 3.329288 33.339378 0.078977
2010-12-14 13:25:30 51°30.904 2°54.459 6.2517 3.32992 33.343883 0.078977
2010-12-14 13:26:30 51°30.768 2°54.413 6.2498 3.333714 33.362495 0.078977
2010-12-14 13:27:30 51°30.635 2°54.367 6.2052 3.333609 33.360484 0.078977
2010-12-14 13:28:30 51°30.506 2°54.323 6.0148 3.321594 33.319426 0.078977
2010-12-14 13:29:30 51°30.38 2°54.281 5.9499 3.295984 33.183819 0.044153
2010-12-14 13:30:30 51°30.252 2°54.238 5.9191 3.287131 33.135457 0.044153
2010-12-14 13:31:30 51°30.121 2°54.208 5.881 3.282073 33.112591 0.078977
2010-12-14 13:32:30 51°29.99 2°54.18 5.8565 3.277014 33.087165 0.078977
2010-12-14 13:33:30 51°29.857 2°54.15 5.8417 3.273115 33.07132 0.078977
2010-12-14 13:34:30 51°29.725 2°54.121 5.808 3.27048 33.05698 0.044153
2010-12-14 13:35:30 51°29.594 2°54.091 5.8045 3.266897 33.041275 0.009329
2010-12-14 13:36:30 51°29.461 2°54.06 5.782 3.265106 33.033839 0.044153
2010-12-14 13:37:30 51°29.329 2°54.028 5.7658 3.262366 33.022509 0.078977
2010-12-14 13:38:30 51°29.195 2°53.997 5.75 3.260153 33.010332 0.044153
2010-12-14 13:39:30 51°29.062 2°53.966 5.7394 3.257834 32.995278 0.078977
2010-12-14 13:40:30 51°28.928 2°53.933 5.7188 3.255516 32.990345 0.078977
2010-12-14 13:41:30 51°28.794 2°53.902 5.7057 3.252671 32.978643 0.078977
2010-12-14 13:42:30 51°28.659 2°53.873 5.6794 3.249615 32.960339 0.078977
2010-12-14 13:43:30 51°28.524 2°53.841 5.6681 3.247296 32.952009 0.044153
2010-12-14 13:44:30 51°28.388 2°53.81 5.655 3.245294 32.937091 0.044153
2010-12-14 13:45:30 51°28.252 2°53.777 5.64 3.24287 32.928406 0.044153
2010-12-14 13:46:30 51°28.115 2°53.745 5.64 3.241395 32.921096 0.078977
2010-12-14 13:47:30 51°27.978 2°53.713 5.6451 3.240236 32.911428 0.078977
2010-12-14 13:48:30 51°27.84 2°53.684 5.6677 3.240763 32.910601 0.078977
2010-12-14 13:49:30 51°27.703 2°53.654 5.6776 3.243397 32.918287 0.078977
2010-12-14 13:50:30 51°27.567 2°53.619 5.5637 3.243819 32.917964 0.078977
2010-12-14 13:51:30 51°27.433 2°53.582 5.3925 3.22464 32.843861 0.078977
2010-12-14 13:52:30 51°27.3 2°53.546 5.3404 3.202511 32.726623 0.078977
2010-12-14 13:53:30 51°27.166 2°53.509 5.3124 3.194924 32.685575 0.044153
2010-12-14 13:54:30 51°27.032 2°53.48 5.2755 3.190394 32.663011 0.044153
2010-12-14 13:55:30 51°26.898 2°53.459 5.239 3.183544 32.626821 0.044153
2010-12-14 13:56:30 51°26.765 2°53.436 5.2341 3.177117 32.5818 0.044153
2010-12-14 13:57:30 51°26.632 2°53.414 5.2073 3.174904 32.56429 0.078977
2010-12-14 13:58:30 51°26.5 2°53.394 5.1575 3.168898 32.52822 0.044153
2010-12-14 13:59:30 51°26.369 2°53.375 5.1295 3.159836 32.466653 0.044153
2010-12-14 14:00:30 51°26.237 2°53.353 5.105 3.153514 32.424322 0.044153
2010-12-14 14:01:30 51°26.104 2°53.336 5.0898 3.148351 32.384146 0.044153
2010-12-14 14:02:30 51°25.971 2°53.317 5.0786 3.144769 32.356872 0.044153
2010-12-14 14:03:30 51°25.838 2°53.301 5.06 3.141503 32.334027 0.044153
2010-12-14 14:04:30 51°25.706 2°53.282 5.0588 3.137815 32.303833 0.078977
2010-12-14 14:05:30 51°25.573 2°53.263 5.049 3.135286 32.285146 0.078977
2010-12-14 14:06:30 51°25.44 2°53.244 5.0649 3.133916 32.268692 0.044153
2010-12-14 14:07:30 51°25.305 2°53.224 5.0758 3.134338 32.27012 0.044153
2010-12-14 14:08:30 51°25.17 2°53.206 5.0715 3.13655 32.280989 0.044153
2010-12-14 14:09:30 51°25.035 2°53.185 5.0777 3.138131 32.297306 0.044153
2010-12-14 14:10:30 51°24.886 2°53.163 5.0731 3.139395 32.309177 0.044153
2010-12-14 14:11:30 51°24.701 2°53.132 5.0722 3.139606 32.315798 0.044153
2010-12-14 14:12:30 51°24.51 2°53.105 5.0698 3.140133 32.32349 0.009329
2010-12-14 14:13:30 51°24.319 2°53.072 5.1115 3.141292 32.337541 0.044153
2010-12-14 14:14:30 51°24.12 2°53.033 5.0694 3.148035 32.374631 0.078977
2010-12-14 14:15:30 51°23.915 2°52.991 5.0406 3.139817 32.327491 0.078977
2010-12-14 14:16:30 51°23.71 2°52.951 4.9047 3.131599 32.281946 0.044153
2010-12-14 14:17:30 51°23.505 2°52.916 4.868 3.109789 32.129982 0.044153
2010-12-14 14:18:30 51°23.3 2°52.887 4.8631 3.100939 32.062513 0.044153
2010-12-14 14:19:30 51°23.094 2°52.867 4.8423 3.097146 32.03092 0.044153
2010-12-14 14:20:30 51°22.887 2°52.822 4.8149 3.089455 31.970691 0.078977
2010-12-14 14:21:30 51°22.678 2°52.768 4.8174 3.084187 31.92805 0.044153
2010-12-14 14:22:30 51°22.471 2°52.723 4.7762 3.083766 31.924065 0.044153
2010-12-14 14:23:30 51°22.266 2°52.683 4.7189 3.069016 31.803827 0.078977
2010-12-14 14:24:30 51°22.06 2°52.638 4.685 3.055321 31.687056 0.044153
2010-12-14 14:25:30 51°21.853 2°52.606 4.6591 3.047103 31.616235 0.078977
2010-12-14 14:26:30 51°21.647 2°52.561 4.6461 3.038359 31.550991 0.078977
2010-12-14 14:27:30 51°21.44 2°52.533 4.616 3.034146 31.519311 0.078977
2010-12-14 14:28:30 51°21.231 2°52.488 4.5488 3.022874 31.429036 0.078977
2010-12-14 14:29:30 51°21.025 2°52.449 4.4743 3.008442 31.317243 0.113802
2010-12-14 14:30:30 51°20.814 2°52.409 4.4811 1.350027 11.07806 0.078977
2010-12-14 14:31:30 51°20.607 2°52.366 4.4686 0.159577 1.113575 0.113802
2010-12-14 14:32:30 51°20.401 2°52.327 4.4778 0.069742 0.463796 0.113802
2010-12-14 14:33:30 51°20.196 2°52.294 4.4328 0.06017 0.39018 0.078977
2010-12-14 14:34:30 51°19.989 2°52.254 4.4174 0.059545 0.372376 0.078977
2010-12-14 14:35:30 51°19.782 2°52.209 4.3979 0.059649 0.371291 0.044153
2010-12-14 14:36:30 51°19.576 2°52.193 4.3846 0.058609 0.372847 0.078977
2010-12-14 14:37:30 51°19.369 2°52.208 4.3824 0.056945 0.36822 0.078977
2010-12-14 14:38:30 51°19.161 2°52.225 4.3767 0.055592 0.36757 0.078977
2010-12-14 14:39:30 51°18.953 2°52.241 4.3669 0.054136 0.366642 0.044153
2010-12-14 14:40:30 51°18.743 2°52.249 4.3674 0.05268 0.362875 0.044153
2010-12-14 14:41:30 51°18.536 2°52.254 4.3816 0.051952 0.35998 0.113802
2010-12-14 14:42:30 51°18.328 2°52.263 4.3954 0.051744 0.360133 0.113802
2010-12-14 14:43:30 51°18.117 2°52.27 4.3874 0.051536 0.360915 0.113802
2010-12-14 14:44:30 51°17.908 2°52.284 4.4048 0.05112 0.360652 0.148626
2010-12-14 14:45:30 51°17.699 2°52.3 4.3804 0.0506 0.359175 0.18345
2010-12-14 14:46:30 51°17.489 2°52.313 4.3664 0.050183 0.357727 0.148626
2010-12-14 14:47:30 51°17.279 2°52.328 4.3402 0.049975 0.357795 0.218274
2010-12-14 14:48:29 51°17.076 2°52.369 4.3231 0.049871 0.358229 0.253098
2010-12-14 14:49:30 51°16.879 2°52.476 4.3228 0.049767 0.357883 0.287922
2010-12-14 14:50:30 51°16.695 2°52.618 4.3086 0.049663 0.357527 0.287922
2010-12-14 14:51:30 51°16.511 2°52.758 4.287 0.049455 0.357292 0.322746
2010-12-14 14:52:30 51°16.333 2°52.915 4.2757 0.049247 0.356866 0.322746
2010-12-14 14:53:30 51°16.162 2°53.082 4.2392 0.049143 0.357023 0.287922
2010-12-14 14:54:30 51°15.99 2°53.234 4.2004 0.049039 0.356788 0.218274
2010-12-14 14:55:30 51°15.821 2°53.398 4.1983 0.048935 0.356161 0.148626
2010-12-14 14:56:30 51°15.668 2°53.597 4.5982 0.048935 0.356528 0.218274
2010-12-14 14:57:30 51°15.51 2°53.796 4.821 0.049039 0.357306 -0.095143
2010-12-14 14:58:30 51°15.349 2°53.994 4.9599 0.049143 0.358059 -0.129967
2010-12-14 14:59:30 51°15.187 2°54.187 5.093 0.049455 0.360393 -0.164791
2010-12-14 15:00:30 51°15.022 2°54.379 5.2365 0.049767 0.362745 -0.164791
2010-12-14 15:01:31 51°14.862 2°54.587 5.3851 0.050184 0.365841 -0.164791
2010-12-14 15:02:30 51°14.71 2°54.791 5.5201 0.050496 0.368142 -0.164791
2010-12-14 15:03:30 51°14.549 2°54.984 5.6772 0.050912 0.371213 -0.199615
2010-12-14 15:04:31 51°14.38 2°55.169 5.7916 0.051224 0.373418 -0.199615
2010-12-14 15:05:34 51°14.224 2°55.33 5.9359 0.051536 0.375604 -0.164791
2010-12-14 15:06:33 51°14.101 2°55.428 6.0573 0.05164 0.376232 -0.199615
2010-12-14 15:07:34 51°13.979 2°55.517 6.1234 0.051744 0.376852 -0.199615
2010-12-14 15:08:33 51°13.861 2°55.602 6.2068 0.051848 0.377488 -0.164791
2010-12-14 15:09:31 51°13.762 2°55.712 6.2947 0.051952 0.378142 -0.164791
2010-12-14 15:10:31 51°13.706 2°55.822 6.4053 0.051952 0.377992 -0.164791
2010-12-14 15:11:30 51°13.673 2°55.906 6.5243 0.052056 0.378645 -0.199615